sensor_id;sensor_type;location;lat;lon;timestamp;pressure;altitude;pressure_sealevel;temperature;humidity
44453;BME280;30155;52.164;21.236;2022-07-03T00:01:14;101209.94;;;17.14;75.64
44453;BME280;30155;52.164;21.236;2022-07-03T00:06:06;101202.53;;;17.05;75.67
44453;BME280;30155;52.164;21.236;2022-07-03T00:10:57;101203.41;;;16.93;75.78
44453;BME280;30155;52.164;21.236;2022-07-03T00:15:48;101197.27;;;16.75;76.00
44453;BME280;30155;52.164;21.236;2022-07-03T00:20:44;101205.16;;;16.66;76.23
44453;BME280;30155;52.164;21.236;2022-07-03T00:25:38;101206.48;;;16.60;76.61
44453;BME280;30155;52.164;21.236;2022-07-03T00:30:30;101210.42;;;16.60;76.87
44453;BME280;30155;52.164;21.236;2022-07-03T00:35:22;101207.78;;;16.66;77.15
44453;BME280;30155;52.164;21.236;2022-07-03T00:40:14;101203.39;;;16.68;77.19
44453;BME280;30155;52.164;21.236;2022-07-03T00:45:07;101208.66;;;16.71;77.34
44453;BME280;30155;52.164;21.236;2022-07-03T00:50:05;101204.27;;;16.73;77.16
44453;BME280;30155;52.164;21.236;2022-07-03T00:54:58;101202.52;;;16.75;77.43
44453;BME280;30155;52.164;21.236;2022-07-03T00:59:51;101196.41;;;16.80;77.38
44453;BME280;30155;52.164;21.236;2022-07-03T01:05:02;101196.41;;;16.80;77.30
44453;BME280;30155;52.164;21.236;2022-07-03T01:15:35;101193.33;;;16.75;77.54
44453;BME280;30155;52.164;21.236;2022-07-03T01:20:44;101192.02;;;16.75;77.51
44453;BME280;30155;52.164;21.236;2022-07-03T01:25:42;101183.27;;;16.76;77.44
44453;BME280;30155;52.164;21.236;2022-07-03T01:30:53;101182.37;;;16.77;77.53
44453;BME280;30155;52.164;21.236;2022-07-03T01:40:42;101176.27;;;16.80;77.18
44453;BME280;30155;52.164;21.236;2022-07-03T01:45:44;101173.20;;;16.82;77.37
44453;BME280;30155;52.164;21.236;2022-07-03T01:50:33;101164.87;;;16.83;77.27
44453;BME280;30155;52.164;21.236;2022-07-03T01:55:25;101153.53;;;16.84;77.11
44453;BME280;30155;52.164;21.236;2022-07-03T02:00:20;101148.73;;;16.83;77.04
44453;BME280;30155;52.164;21.236;2022-07-03T02:05:30;101147.80;;;16.83;76.86
44453;BME280;30155;52.164;21.236;2022-07-03T02:10:30;101152.22;;;16.84;76.71
44453;BME280;30155;52.164;21.236;2022-07-03T02:15:32;101147.42;;;16.83;76.70
44453;BME280;30155;52.164;21.236;2022-07-03T02:20:25;101155.70;;;16.80;76.70
44453;BME280;30155;52.164;21.236;2022-07-03T02:25:18;101148.69;;;16.75;76.73
44453;BME280;30155;52.164;21.236;2022-07-03T02:30:12;101147.81;;;16.70;76.75
44453;BME280;30155;52.164;21.236;2022-07-03T02:35:12;101148.72;;;16.58;76.87
44453;BME280;30155;52.164;21.236;2022-07-03T02:40:08;101150.92;;;16.50;76.96
44453;BME280;30155;52.164;21.236;2022-07-03T02:45:04;101155.73;;;16.43;76.89
44453;BME280;30155;52.164;21.236;2022-07-03T02:50:05;101144.79;;;16.32;77.02
44453;BME280;30155;52.164;21.236;2022-07-03T03:00:19;101145.23;;;16.03;77.10
44453;BME280;30155;52.164;21.236;2022-07-03T03:05:16;101150.00;;;15.97;77.43
44453;BME280;30155;52.164;21.236;2022-07-03T03:10:19;101153.48;;;15.91;77.40
44453;BME280;30155;52.164;21.236;2022-07-03T03:15:12;101155.27;;;16.01;77.64
44453;BME280;30155;52.164;21.236;2022-07-03T03:20:05;101152.22;;;16.62;77.62
44453;BME280;30155;52.164;21.236;2022-07-03T03:24:57;101156.34;;;17.60;76.87
44453;BME280;30155;52.164;21.236;2022-07-03T03:29:49;101146.48;;;18.54;74.80
44453;BME280;30155;52.164;21.236;2022-07-03T03:34:41;101135.66;;;20.22;73.16
44453;BME280;30155;52.164;21.236;2022-07-03T03:39:32;101130.28;;;21.66;70.44
44453;BME280;30155;52.164;21.236;2022-07-03T03:44:24;101128.41;;;21.72;68.38
44453;BME280;30155;52.164;21.236;2022-07-03T03:49:15;101134.08;;;20.64;68.07
44453;BME280;30155;52.164;21.236;2022-07-03T03:54:06;101126.38;;;20.25;68.42
44453;BME280;30155;52.164;21.236;2022-07-03T03:58:57;101124.95;;;19.73;68.55
44453;BME280;30155;52.164;21.236;2022-07-03T04:03:48;101133.27;;;19.04;69.19
44453;BME280;30155;52.164;21.236;2022-07-03T04:08:40;101124.53;;;18.58;69.59
44453;BME280;30155;52.164;21.236;2022-07-03T04:13:31;101120.89;;;18.21;70.14
44453;BME280;30155;52.164;21.236;2022-07-03T04:18:22;101115.87;;;17.92;70.54
44453;BME280;30155;52.164;21.236;2022-07-03T04:23:14;101121.66;;;17.70;70.90
44453;BME280;30155;52.164;21.236;2022-07-03T04:28:05;101123.94;;;17.57;71.16
44453;BME280;30155;52.164;21.236;2022-07-03T04:32:56;101123.09;;;17.48;71.52
44453;BME280;30155;52.164;21.236;2022-07-03T04:37:47;101127.94;;;17.41;71.64
44453;BME280;30155;52.164;21.236;2022-07-03T04:42:39;101125.77;;;17.38;71.77
44453;BME280;30155;52.164;21.236;2022-07-03T04:47:30;101122.73;;;17.37;71.95
44453;BME280;30155;52.164;21.236;2022-07-03T04:52:21;101128.84;;;17.40;72.02
44453;BME280;30155;52.164;21.236;2022-07-03T04:57:12;101125.31;;;17.44;72.17
44453;BME280;30155;52.164;21.236;2022-07-03T05:02:04;101130.97;;;17.51;71.93
44453;BME280;30155;52.164;21.236;2022-07-03T05:06:55;101123.94;;;17.57;71.95
44453;BME280;30155;52.164;21.236;2022-07-03T05:11:46;101119.95;;;17.60;71.88
44453;BME280;30155;52.164;21.236;2022-07-03T05:16:37;101119.07;;;17.65;71.08
44453;BME280;30155;52.164;21.236;2022-07-03T05:21:29;101115.07;;;17.73;70.47
44453;BME280;30155;52.164;21.236;2022-07-03T05:26:21;101117.19;;;17.81;70.23
44453;BME280;30155;52.164;21.236;2022-07-03T05:31:12;101118.91;;;17.93;69.83
44453;BME280;30155;52.164;21.236;2022-07-03T05:36:04;101119.61;;;18.15;69.51
44453;BME280;30155;52.164;21.236;2022-07-03T05:40:56;101122.98;;;18.33;69.04
44453;BME280;30155;52.164;21.236;2022-07-03T05:45:48;101117.87;;;19.09;67.43
44453;BME280;30155;52.164;21.236;2022-07-03T05:50:39;101115.00;;;19.27;66.72
44453;BME280;30155;52.164;21.236;2022-07-03T05:55:30;101111.41;;;19.66;65.56
44453;BME280;30155;52.164;21.236;2022-07-03T06:00:21;101121.80;;;20.07;65.28
44453;BME280;30155;52.164;21.236;2022-07-03T06:05:12;101116.86;;;19.86;65.10
44453;BME280;30155;52.164;21.236;2022-07-03T06:10:07;101122.30;;;19.75;64.68
44453;BME280;30155;52.164;21.236;2022-07-03T06:14:58;101126.78;;;19.65;64.02
44453;BME280;30155;52.164;21.236;2022-07-03T06:19:49;101123.34;;;19.60;63.72
44453;BME280;30155;52.164;21.236;2022-07-03T06:24:40;101121.14;;;19.61;63.31
44453;BME280;30155;52.164;21.236;2022-07-03T06:29:31;101118.94;;;19.62;62.67
44453;BME280;30155;52.164;21.236;2022-07-03T06:34:23;101126.65;;;19.77;62.69
44453;BME280;30155;52.164;21.236;2022-07-03T06:39:14;101131.86;;;20.64;61.59
44453;BME280;30155;52.164;21.236;2022-07-03T06:44:05;101131.86;;;20.64;61.59
44453;BME280;30155;52.164;21.236;2022-07-03T06:48:56;101130.48;;;21.57;60.38
44453;BME280;30155;52.164;21.236;2022-07-03T06:53:47;101127.70;;;21.21;59.77
44453;BME280;30155;52.164;21.236;2022-07-03T06:58:39;101118.59;;;21.35;59.38
44453;BME280;30155;52.164;21.236;2022-07-03T07:03:30;101113.13;;;22.55;57.06
44453;BME280;30155;52.164;21.236;2022-07-03T07:08:22;101110.41;;;22.41;57.49
44453;BME280;30155;52.164;21.236;2022-07-03T07:13:13;101115.23;;;22.06;56.72
44453;BME280;30155;52.164;21.236;2022-07-03T07:18:04;101108.00;;;21.77;56.50
44453;BME280;30155;52.164;21.236;2022-07-03T07:22:55;101104.09;;;21.74;56.40
44453;BME280;30155;52.164;21.236;2022-07-03T07:27:46;101080.67;;;22.79;54.77
44453;BME280;30155;52.164;21.236;2022-07-03T07:32:38;101074.81;;;24.14;53.40
44453;BME280;30155;52.164;21.236;2022-07-03T07:37:29;101066.35;;;27.91;48.42
44453;BME280;30155;52.164;21.236;2022-07-03T07:42:21;101065.33;;;31.18;43.18
44453;BME280;30155;52.164;21.236;2022-07-03T07:47:12;101059.27;;;32.56;42.37
44453;BME280;30155;52.164;21.236;2022-07-03T07:52:03;101058.92;;;35.17;38.80
44453;BME280;30155;52.164;21.236;2022-07-03T07:56:55;101053.09;;;36.72;36.13
44453;BME280;30155;52.164;21.236;2022-07-03T08:01:46;101052.02;;;37.35;34.66
44453;BME280;30155;52.164;21.236;2022-07-03T08:06:55;101041.20;;;37.29;34.42
44453;BME280;30155;52.164;21.236;2022-07-03T08:11:46;101048.78;;;34.75;35.88
44453;BME280;30155;52.164;21.236;2022-07-03T08:16:37;101046.27;;;32.62;37.11
44453;BME280;30155;52.164;21.236;2022-07-03T08:21:29;101039.72;;;31.61;36.57
44453;BME280;30155;52.164;21.236;2022-07-03T08:26:20;101047.10;;;32.50;34.94
44453;BME280;30155;52.164;21.236;2022-07-03T08:31:12;101041.36;;;35.28;32.02
44453;BME280;30155;52.164;21.236;2022-07-03T08:36:04;101038.89;;;37.40;30.79
44453;BME280;30155;52.164;21.236;2022-07-03T08:40:58;101033.73;;;38.86;28.64
44453;BME280;30155;52.164;21.236;2022-07-03T08:45:50;101027.23;;;38.02;29.39
44453;BME280;30155;52.164;21.236;2022-07-03T08:50:41;101037.44;;;38.99;28.13
44453;BME280;30155;52.164;21.236;2022-07-03T08:55:33;101027.75;;;39.60;26.90
44453;BME280;30155;52.164;21.236;2022-07-03T09:00:26;101024.17;;;40.17;26.23
44453;BME280;30155;52.164;21.236;2022-07-03T09:05:17;101021.08;;;40.73;26.08
44453;BME280;30155;52.164;21.236;2022-07-03T09:10:11;101016.93;;;40.34;25.72
44453;BME280;30155;52.164;21.236;2022-07-03T09:15:06;101008.23;;;40.57;25.59
44453;BME280;30155;52.164;21.236;2022-07-03T09:20:00;101005.59;;;37.18;27.50
44453;BME280;30155;52.164;21.236;2022-07-03T09:35:21;101000.50;;;31.09;31.90
44453;BME280;30155;52.164;21.236;2022-07-03T09:40:14;100992.25;;;33.08;31.00
44453;BME280;30155;52.164;21.236;2022-07-03T09:45:07;100992.41;;;32.37;32.07
44453;BME280;30155;52.164;21.236;2022-07-03T09:50:03;100989.61;;;31.92;32.54
44453;BME280;30155;52.164;21.236;2022-07-03T09:55:16;100991.92;;;34.54;29.93
44453;BME280;30155;52.164;21.236;2022-07-03T10:00:19;100987.52;;;36.32;28.70
44453;BME280;30155;52.164;21.236;2022-07-03T10:05:12;100986.00;;;37.79;27.82
44453;BME280;30155;52.164;21.236;2022-07-03T10:10:04;100986.83;;;38.56;27.39
44453;BME280;30155;52.164;21.236;2022-07-03T10:14:55;100987.11;;;38.53;26.89
44453;BME280;30155;52.164;21.236;2022-07-03T10:19:47;100981.47;;;39.20;26.26
44453;BME280;30155;52.164;21.236;2022-07-03T10:24:38;100967.72;;;39.21;25.96
44453;BME280;30155;52.164;21.236;2022-07-03T10:29:31;100967.83;;;39.48;26.46
44453;BME280;30155;52.164;21.236;2022-07-03T10:34:25;100963.27;;;39.38;25.27
44453;BME280;30155;52.164;21.236;2022-07-03T10:44:31;100946.34;;;37.39;26.88
44453;BME280;30155;52.164;21.236;2022-07-03T10:49:59;100950.26;;;37.70;26.16
44453;BME280;30155;52.164;21.236;2022-07-03T10:54:50;100951.95;;;38.04;26.70
44453;BME280;30155;52.164;21.236;2022-07-03T11:20:26;100913.69;;;32.90;32.35
44453;BME280;30155;52.164;21.236;2022-07-03T11:25:17;100910.28;;;32.25;31.73
44453;BME280;30155;52.164;21.236;2022-07-03T11:30:09;100918.31;;;31.74;32.16
44453;BME280;30155;52.164;21.236;2022-07-03T11:35:02;100908.94;;;30.51;33.76
44453;BME280;30155;52.164;21.236;2022-07-03T11:39:56;100915.83;;;30.69;33.56
44453;BME280;30155;52.164;21.236;2022-07-03T11:44:49;100906.41;;;29.76;34.06
44453;BME280;30155;52.164;21.236;2022-07-03T11:49:48;100902.89;;;30.33;35.41
44453;BME280;30155;52.164;21.236;2022-07-03T11:54:50;100897.08;;;30.55;34.55
44453;BME280;30155;52.164;21.236;2022-07-03T11:59:42;100889.75;;;30.71;34.63
44453;BME280;30155;52.164;21.236;2022-07-03T12:04:33;100896.76;;;29.80;34.75
44453;BME280;30155;52.164;21.236;2022-07-03T12:09:33;100894.45;;;29.96;35.34
44453;BME280;30155;52.164;21.236;2022-07-03T12:14:57;100882.02;;;30.52;35.12
44453;BME280;30155;52.164;21.236;2022-07-03T12:19:33;100882.23;;;30.98;35.61
44453;BME280;30155;52.164;21.236;2022-07-03T12:24:25;100866.80;;;31.14;36.47
44453;BME280;30155;52.164;21.236;2022-07-03T12:29:17;100869.18;;;31.39;35.18
44453;BME280;30155;52.164;21.236;2022-07-03T12:34:10;100871.19;;;30.95;34.97
44453;BME280;30155;52.164;21.236;2022-07-03T12:39:02;100865.66;;;30.28;35.97
44453;BME280;30155;52.164;21.236;2022-07-03T12:43:55;100862.94;;;30.64;37.27
44453;BME280;30155;52.164;21.236;2022-07-03T12:48:50;100871.06;;;31.24;36.24
44453;BME280;30155;52.164;21.236;2022-07-03T12:53:42;100865.55;;;30.86;35.96
44453;BME280;30155;52.164;21.236;2022-07-03T12:58:35;100863.00;;;29.99;37.14
44453;BME280;30155;52.164;21.236;2022-07-03T13:03:48;100869.19;;;29.41;37.52
44453;BME280;30155;52.164;21.236;2022-07-03T13:08:48;100864.02;;;28.99;37.91
44453;BME280;30155;52.164;21.236;2022-07-03T13:13:46;100865.30;;;28.84;38.33
44453;BME280;30155;52.164;21.236;2022-07-03T13:18:55;100857.28;;;28.68;38.90
44453;BME280;30155;52.164;21.236;2022-07-03T13:23:35;100850.47;;;28.63;39.38
44453;BME280;30155;52.164;21.236;2022-07-03T13:28:26;100839.70;;;29.26;39.33
44453;BME280;30155;52.164;21.236;2022-07-03T13:33:17;100842.02;;;28.94;40.34
44453;BME280;30155;52.164;21.236;2022-07-03T13:38:08;100836.40;;;28.75;40.86
44453;BME280;30155;52.164;21.236;2022-07-03T13:42:59;100842.35;;;28.80;41.08
44453;BME280;30155;52.164;21.236;2022-07-03T13:47:50;100835.35;;;29.01;41.27
44453;BME280;30155;52.164;21.236;2022-07-03T13:52:41;100835.49;;;29.37;41.13
44453;BME280;30155;52.164;21.236;2022-07-03T13:57:32;100833.19;;;28.84;41.60
44453;BME280;30155;52.164;21.236;2022-07-03T14:02:23;100831.11;;;28.89;41.88
44453;BME280;30155;52.164;21.236;2022-07-03T14:07:15;100830.11;;;28.76;42.22
44453;BME280;30155;52.164;21.236;2022-07-03T14:12:07;100825.38;;;28.25;42.79
44453;BME280;30155;52.164;21.236;2022-07-03T14:16:59;100820.23;;;28.54;42.76
44453;BME280;30155;52.164;21.236;2022-07-03T14:21:50;100815.66;;;28.95;42.94
44453;BME280;30155;52.164;21.236;2022-07-03T14:26:41;100814.73;;;28.32;42.76
44453;BME280;30155;52.164;21.236;2022-07-03T14:31:53;100810.89;;;28.29;42.84
44453;BME280;30155;52.164;21.236;2022-07-03T14:37:04;100808.83;;;28.50;42.99
44453;BME280;30155;52.164;21.236;2022-07-03T14:41:55;100800.40;;;28.33;43.31
44453;BME280;30155;52.164;21.236;2022-07-03T14:46:46;100791.69;;;28.77;43.29
44453;BME280;30155;52.164;21.236;2022-07-03T14:51:37;100788.27;;;29.36;42.34
44453;BME280;30155;52.164;21.236;2022-07-03T14:56:29;100796.37;;;29.04;42.66
44453;BME280;30155;52.164;21.236;2022-07-03T15:01:22;100793.56;;;28.91;42.54
44453;BME280;30155;52.164;21.236;2022-07-03T15:06:14;100787.95;;;28.41;43.36
44453;BME280;30155;52.164;21.236;2022-07-03T15:11:10;100783.26;;;28.37;43.53
44453;BME280;30155;52.164;21.236;2022-07-03T15:16:06;100790.52;;;27.77;44.84
44453;BME280;30155;52.164;21.236;2022-07-03T15:20:58;100794.18;;;27.24;45.77
44453;BME280;30155;52.164;21.236;2022-07-03T15:25:50;100783.27;;;26.93;46.66
44453;BME280;30155;52.164;21.236;2022-07-03T15:30:52;100777.55;;;27.45;46.13
44453;BME280;30155;52.164;21.236;2022-07-03T15:35:53;100774.63;;;27.83;45.83
44453;BME280;30155;52.164;21.236;2022-07-03T15:40:54;100766.69;;;28.30;45.22
44453;BME280;30155;52.164;21.236;2022-07-03T15:46:06;100769.83;;;28.55;44.65
44453;BME280;30155;52.164;21.236;2022-07-03T15:56:08;100769.41;;;27.30;45.89
44453;BME280;30155;52.164;21.236;2022-07-03T16:01:03;100766.02;;;26.83;46.67
44453;BME280;30155;52.164;21.236;2022-07-03T16:06:14;100764.59;;;27.02;46.75
44453;BME280;30155;52.164;21.236;2022-07-03T16:11:05;100760.67;;;27.18;46.78
44453;BME280;30155;52.164;21.236;2022-07-03T16:15:58;100759.27;;;27.19;46.80
44453;BME280;30155;52.164;21.236;2022-07-03T16:20:51;100757.85;;;27.21;47.08
44453;BME280;30155;52.164;21.236;2022-07-03T16:25:43;100755.36;;;27.27;46.96
44453;BME280;30155;52.164;21.236;2022-07-03T16:30:47;100761.25;;;27.33;46.86
44453;BME280;30155;52.164;21.236;2022-07-03T16:35:43;100752.14;;;27.29;46.80
44453;BME280;30155;52.164;21.236;2022-07-03T16:40:34;100743.10;;;27.05;46.99
44453;BME280;30155;52.164;21.236;2022-07-03T16:45:31;100752.50;;;26.77;47.19
44453;BME280;30155;52.164;21.236;2022-07-03T16:50:24;100749.53;;;26.56;47.40
44453;BME280;30155;52.164;21.236;2022-07-03T16:55:16;100752.19;;;26.38;47.66
44453;BME280;30155;52.164;21.236;2022-07-03T17:00:12;100749.87;;;26.03;48.25
44453;BME280;30155;52.164;21.236;2022-07-03T17:05:05;100755.55;;;25.85;48.95
44453;BME280;30155;52.164;21.236;2022-07-03T17:10:00;100757.45;;;25.62;49.63
44453;BME280;30155;52.164;21.236;2022-07-03T17:14:52;100762.22;;;25.45;50.24
44453;BME280;30155;52.164;21.236;2022-07-03T17:19:59;100754.11;;;25.28;50.48
44453;BME280;30155;52.164;21.236;2022-07-03T17:24:53;100753.20;;;25.07;50.90
44453;BME280;30155;52.164;21.236;2022-07-03T17:29:47;100752.31;;;24.86;51.62
44453;BME280;30155;52.164;21.236;2022-07-03T17:34:42;100753.89;;;24.69;52.45
44453;BME280;30155;52.164;21.236;2022-07-03T17:39:35;100749.55;;;24.57;52.34
44453;BME280;30155;52.164;21.236;2022-07-03T17:44:28;100750.38;;;24.69;52.53
44453;BME280;30155;52.164;21.236;2022-07-03T17:49:20;100753.80;;;24.83;52.53
44453;BME280;30155;52.164;21.236;2022-07-03T17:54:13;100752.87;;;24.94;52.41
44453;BME280;30155;52.164;21.236;2022-07-03T17:59:06;100753.78;;;24.93;52.63
44453;BME280;30155;52.164;21.236;2022-07-03T18:03:57;100747.94;;;24.85;52.87
44453;BME280;30155;52.164;21.236;2022-07-03T18:14:05;100748.63;;;24.46;53.77
44453;BME280;30155;52.164;21.236;2022-07-03T18:18:59;100748.04;;;24.27;54.18
44453;BME280;30155;52.164;21.236;2022-07-03T18:23:52;100745.17;;;24.10;54.58
44453;BME280;30155;52.164;21.236;2022-07-03T18:28:48;100747.44;;;23.97;54.83
44453;BME280;30155;52.164;21.236;2022-07-03T18:33:40;100748.42;;;23.83;55.49
44453;BME280;30155;52.164;21.236;2022-07-03T18:38:33;100745.83;;;23.68;55.51
44453;BME280;30155;52.164;21.236;2022-07-03T18:43:25;100749.88;;;23.54;55.85
44453;BME280;30155;52.164;21.236;2022-07-03T18:48:20;100752.68;;;23.38;55.82
44453;BME280;30155;52.164;21.236;2022-07-03T18:53:31;100751.89;;;23.22;56.27
44453;BME280;30155;52.164;21.236;2022-07-03T18:58:44;100746.72;;;23.06;56.60
44453;BME280;30155;52.164;21.236;2022-07-03T19:09:05;100759.23;;;22.74;57.33
44453;BME280;30155;52.164;21.236;2022-07-03T19:14:08;100763.77;;;22.57;57.83
44453;BME280;30155;52.164;21.236;2022-07-03T19:19:02;100752.37;;;22.40;58.14
44453;BME280;30155;52.164;21.236;2022-07-03T19:23:53;100759.94;;;22.23;58.85
44453;BME280;30155;52.164;21.236;2022-07-03T19:28:45;100758.20;;;22.07;59.10
44453;BME280;30155;52.164;21.236;2022-07-03T19:33:37;100759.19;;;21.89;59.47
44453;BME280;30155;52.164;21.236;2022-07-03T19:38:28;100754.37;;;21.73;60.05
44453;BME280;30155;52.164;21.236;2022-07-03T19:43:20;100761.33;;;21.60;60.44
44453;BME280;30155;52.164;21.236;2022-07-03T19:48:11;100755.48;;;21.49;60.80
44453;BME280;30155;52.164;21.236;2022-07-03T19:53:02;100765.07;;;21.35;61.09
44453;BME280;30155;52.164;21.236;2022-07-03T19:57:53;100753.89;;;21.25;61.46
44453;BME280;30155;52.164;21.236;2022-07-03T20:02:44;100755.56;;;21.11;61.70
44453;BME280;30155;52.164;21.236;2022-07-03T20:07:36;100759.81;;;21.01;62.09
44453;BME280;30155;52.164;21.236;2022-07-03T20:12:27;100762.76;;;20.88;62.40
44453;BME280;30155;52.164;21.236;2022-07-03T20:17:20;100758.30;;;20.72;62.80
44453;BME280;30155;52.164;21.236;2022-07-03T20:22:11;100758.99;;;20.63;63.17
44453;BME280;30155;52.164;21.236;2022-07-03T20:27:08;100754.06;;;20.46;63.61
44453;BME280;30155;52.164;21.236;2022-07-03T20:32:03;100754.44;;;20.30;63.96
44453;BME280;30155;52.164;21.236;2022-07-03T20:36:55;100751.20;;;20.17;64.28
44453;BME280;30155;52.164;21.236;2022-07-03T20:41:46;100754.11;;;20.05;64.60
44453;BME280;30155;52.164;21.236;2022-07-03T20:46:38;100766.77;;;19.89;65.04
44453;BME280;30155;52.164;21.236;2022-07-03T20:51:32;100768.78;;;19.76;65.34
44453;BME280;30155;52.164;21.236;2022-07-03T20:56:23;100771.55;;;19.67;65.72
44453;BME280;30155;52.164;21.236;2022-07-03T21:01:14;100768.61;;;19.60;66.08
44453;BME280;30155;52.164;21.236;2022-07-03T21:06:05;100777.19;;;19.49;66.14
44453;BME280;30155;52.164;21.236;2022-07-03T21:11:12;100771.79;;;19.32;66.46
44453;BME280;30155;52.164;21.236;2022-07-03T21:16:22;100775.13;;;19.18;66.73
44453;BME280;30155;52.164;21.236;2022-07-03T21:21:14;100781.39;;;19.11;67.13
44453;BME280;30155;52.164;21.236;2022-07-03T21:26:05;100783.23;;;19.05;67.32
44453;BME280;30155;52.164;21.236;2022-07-03T21:30:58;100788.19;;;18.98;67.41
44453;BME280;30155;52.164;21.236;2022-07-03T21:35:50;100784.30;;;18.94;67.50
44453;BME280;30155;52.164;21.236;2022-07-03T21:40:41;100785.72;;;18.89;67.75
44453;BME280;30155;52.164;21.236;2022-07-03T21:45:33;100787.19;;;18.77;67.80
44453;BME280;30155;52.164;21.236;2022-07-03T21:50:25;100781.67;;;18.63;68.04
44453;BME280;30155;52.164;21.236;2022-07-03T21:55:16;100779.15;;;18.57;68.21
44453;BME280;30155;52.164;21.236;2022-07-03T22:00:09;100780.94;;;18.55;68.44
44453;BME280;30155;52.164;21.236;2022-07-03T22:05:06;100777.50;;;18.50;68.47
44453;BME280;30155;52.164;21.236;2022-07-03T22:09:59;100775.38;;;18.45;68.65
44453;BME280;30155;52.164;21.236;2022-07-03T22:14:50;100772.78;;;18.42;68.75
44453;BME280;30155;52.164;21.236;2022-07-03T22:19:41;100770.20;;;18.40;68.96
44453;BME280;30155;52.164;21.236;2022-07-03T22:24:32;100764.08;;;18.37;68.96
44453;BME280;30155;52.164;21.236;2022-07-03T22:29:26;100764.21;;;18.27;69.00
44453;BME280;30155;52.164;21.236;2022-07-03T22:34:17;100759.45;;;18.22;69.26
44453;BME280;30155;52.164;21.236;2022-07-03T22:39:08;100757.30;;;18.20;69.18
44453;BME280;30155;52.164;21.236;2022-07-03T22:43:59;100749.91;;;18.15;69.25
44453;BME280;30155;52.164;21.236;2022-07-03T22:48:50;100748.69;;;18.09;68.98
44453;BME280;30155;52.164;21.236;2022-07-03T22:53:42;100744.84;;;18.03;69.39
44453;BME280;30155;52.164;21.236;2022-07-03T22:58:33;100742.74;;;17.95;69.55
44453;BME280;30155;52.164;21.236;2022-07-03T23:03:25;100741.52;;;17.88;69.55
44453;BME280;30155;52.164;21.236;2022-07-03T23:08:16;100735.92;;;17.77;69.74
44453;BME280;30155;52.164;21.236;2022-07-03T23:13:07;100724.61;;;17.70;70.08
44453;BME280;30155;52.164;21.236;2022-07-03T23:17:58;100721.98;;;17.70;70.15
44453;BME280;30155;52.164;21.236;2022-07-03T23:22:50;100716.34;;;17.66;70.28
44453;BME280;30155;52.164;21.236;2022-07-03T23:27:41;100719.47;;;17.61;70.42
44453;BME280;30155;52.164;21.236;2022-07-03T23:32:32;100718.27;;;17.51;70.57
44453;BME280;30155;52.164;21.236;2022-07-03T23:37:23;100712.19;;;17.46;70.66
44453;BME280;30155;52.164;21.236;2022-07-03T23:42:14;100715.33;;;17.38;70.80
44453;BME280;30155;52.164;21.236;2022-07-03T23:47:06;100715.33;;;17.38;71.01
44453;BME280;30155;52.164;21.236;2022-07-03T23:51:57;100714.06;;;17.37;71.02
44453;BME280;30155;52.164;21.236;2022-07-03T23:56:48;100710.18;;;17.29;71.02
